sensor_id;sensor_type;location;lat;lon;timestamp;P1;durP1;ratioP1;P2;durP2;ratioP2
6823;SDS011;58633;49.470;11.004;2024-01-16T00:01:11;7.27;;;4.17;;
6823;SDS011;58633;49.470;11.004;2024-01-16T00:03:37;12.33;;;5.77;;
6823;SDS011;58633;49.470;11.004;2024-01-16T00:06:03;10.40;;;5.63;;
6823;SDS011;58633;49.470;11.004;2024-01-16T00:08:29;9.67;;;4.60;;
6823;SDS011;58633;49.470;11.004;2024-01-16T00:10:54;7.67;;;4.30;;
6823;SDS011;58633;49.470;11.004;2024-01-16T00:13:20;7.53;;;4.83;;
6823;SDS011;58633;49.470;11.004;2024-01-16T00:15:46;5.67;;;4.27;;
6823;SDS011;58633;49.470;11.004;2024-01-16T00:18:11;7.13;;;4.40;;
6823;SDS011;58633;49.470;11.004;2024-01-16T00:20:37;6.83;;;3.87;;
6823;SDS011;58633;49.470;11.004;2024-01-16T00:23:02;8.60;;;4.27;;
6823;SDS011;58633;49.470;11.004;2024-01-16T00:25:28;6.93;;;3.53;;
6823;SDS011;58633;49.470;11.004;2024-01-16T00:27:54;6.03;;;3.87;;
6823;SDS011;58633;49.470;11.004;2024-01-16T00:30:20;8.30;;;3.80;;
6823;SDS011;58633;49.470;11.004;2024-01-16T00:32:45;6.17;;;3.90;;
6823;SDS011;58633;49.470;11.004;2024-01-16T00:35:11;7.07;;;4.00;;
6823;SDS011;58633;49.470;11.004;2024-01-16T00:37:37;5.77;;;3.87;;
6823;SDS011;58633;49.470;11.004;2024-01-16T00:40:03;8.03;;;4.33;;
6823;SDS011;58633;49.470;11.004;2024-01-16T00:42:29;7.13;;;4.17;;
6823;SDS011;58633;49.470;11.004;2024-01-16T00:44:56;8.40;;;4.87;;
6823;SDS011;58633;49.470;11.004;2024-01-16T00:47:22;8.13;;;4.63;;
6823;SDS011;58633;49.470;11.004;2024-01-16T00:49:48;10.40;;;4.10;;
6823;SDS011;58633;49.470;11.004;2024-01-16T00:52:14;9.93;;;4.40;;
6823;SDS011;58633;49.470;11.004;2024-01-16T00:54:40;5.60;;;4.07;;
6823;SDS011;58633;49.470;11.004;2024-01-16T00:57:06;4.57;;;3.83;;
6823;SDS011;58633;49.470;11.004;2024-01-16T00:59:32;5.93;;;4.13;;
6823;SDS011;58633;49.470;11.004;2024-01-16T01:01:58;8.57;;;4.87;;
6823;SDS011;58633;49.470;11.004;2024-01-16T01:04:23;7.33;;;3.97;;
6823;SDS011;58633;49.470;11.004;2024-01-16T01:06:49;5.07;;;3.80;;
6823;SDS011;58633;49.470;11.004;2024-01-16T01:09:15;10.27;;;5.07;;
6823;SDS011;58633;49.470;11.004;2024-01-16T01:11:41;6.40;;;4.23;;
6823;SDS011;58633;49.470;11.004;2024-01-16T01:14:07;7.00;;;4.13;;
6823;SDS011;58633;49.470;11.004;2024-01-16T01:16:33;6.83;;;4.80;;
6823;SDS011;58633;49.470;11.004;2024-01-16T01:18:58;7.23;;;4.43;;
6823;SDS011;58633;49.470;11.004;2024-01-16T01:21:24;9.03;;;4.70;;
6823;SDS011;58633;49.470;11.004;2024-01-16T01:23:50;7.07;;;4.50;;
6823;SDS011;58633;49.470;11.004;2024-01-16T01:26:16;6.10;;;4.60;;
6823;SDS011;58633;49.470;11.004;2024-01-16T01:28:44;9.10;;;5.47;;
6823;SDS011;58633;49.470;11.004;2024-01-16T01:31:10;6.13;;;4.77;;
6823;SDS011;58633;49.470;11.004;2024-01-16T01:33:38;8.57;;;4.90;;
6823;SDS011;58633;49.470;11.004;2024-01-16T01:36:04;6.53;;;4.80;;
6823;SDS011;58633;49.470;11.004;2024-01-16T01:38:30;7.47;;;4.23;;
6823;SDS011;58633;49.470;11.004;2024-01-16T01:40:55;8.87;;;4.87;;
6823;SDS011;58633;49.470;11.004;2024-01-16T01:43:22;8.00;;;4.97;;
6823;SDS011;58633;49.470;11.004;2024-01-16T01:48:54;7.97;;;5.00;;
6823;SDS011;58633;49.470;11.004;2024-01-16T01:51:20;7.17;;;4.70;;
6823;SDS011;58633;49.470;11.004;2024-01-16T01:53:46;8.93;;;4.60;;
6823;SDS011;58633;49.470;11.004;2024-01-16T01:56:15;6.33;;;4.63;;
6823;SDS011;58633;49.470;11.004;2024-01-16T01:58:43;6.17;;;4.40;;
6823;SDS011;58633;49.470;11.004;2024-01-16T02:01:10;11.80;;;5.13;;
6823;SDS011;58633;49.470;11.004;2024-01-16T02:03:39;5.77;;;4.17;;
6823;SDS011;58633;49.470;11.004;2024-01-16T02:06:10;6.70;;;4.80;;
6823;SDS011;58633;49.470;11.004;2024-01-16T02:08:37;9.53;;;4.80;;
6823;SDS011;58633;49.470;11.004;2024-01-16T02:11:03;7.90;;;5.10;;
6823;SDS011;58633;49.470;11.004;2024-01-16T02:13:29;7.27;;;4.93;;
6823;SDS011;58633;49.470;11.004;2024-01-16T02:15:54;7.53;;;4.37;;
6823;SDS011;58633;49.470;11.004;2024-01-16T02:18:20;9.60;;;4.77;;
6823;SDS011;58633;49.470;11.004;2024-01-16T02:20:46;10.83;;;4.63;;
6823;SDS011;58633;49.470;11.004;2024-01-16T02:23:13;6.50;;;4.77;;
6823;SDS011;58633;49.470;11.004;2024-01-16T02:25:40;9.53;;;4.60;;
6823;SDS011;58633;49.470;11.004;2024-01-16T02:28:06;8.70;;;4.70;;
6823;SDS011;58633;49.470;11.004;2024-01-16T02:30:32;6.80;;;4.63;;
6823;SDS011;58633;49.470;11.004;2024-01-16T02:32:58;6.80;;;4.70;;
6823;SDS011;58633;49.470;11.004;2024-01-16T02:35:24;8.33;;;5.30;;
6823;SDS011;58633;49.470;11.004;2024-01-16T02:37:49;7.27;;;4.47;;
6823;SDS011;58633;49.470;11.004;2024-01-16T02:40:15;7.70;;;4.97;;
6823;SDS011;58633;49.470;11.004;2024-01-16T02:42:41;13.77;;;5.10;;
6823;SDS011;58633;49.470;11.004;2024-01-16T02:45:06;12.87;;;4.83;;
6823;SDS011;58633;49.470;11.004;2024-01-16T02:47:33;9.17;;;4.77;;
6823;SDS011;58633;49.470;11.004;2024-01-16T02:49:59;8.70;;;5.30;;
6823;SDS011;58633;49.470;11.004;2024-01-16T02:52:26;6.10;;;4.00;;
6823;SDS011;58633;49.470;11.004;2024-01-16T02:54:52;9.13;;;4.77;;
6823;SDS011;58633;49.470;11.004;2024-01-16T02:57:18;5.80;;;4.67;;
6823;SDS011;58633;49.470;11.004;2024-01-16T02:59:43;8.83;;;4.70;;
6823;SDS011;58633;49.470;11.004;2024-01-16T03:02:09;7.13;;;4.33;;
6823;SDS011;58633;49.470;11.004;2024-01-16T03:04:35;8.70;;;5.50;;
6823;SDS011;58633;49.470;11.004;2024-01-16T03:07:00;6.37;;;4.60;;
6823;SDS011;58633;49.470;11.004;2024-01-16T03:09:26;7.93;;;5.10;;
6823;SDS011;58633;49.470;11.004;2024-01-16T03:11:51;10.17;;;4.77;;
6823;SDS011;58633;49.470;11.004;2024-01-16T03:14:17;5.97;;;4.43;;
6823;SDS011;58633;49.470;11.004;2024-01-16T03:16:43;7.83;;;4.60;;
6823;SDS011;58633;49.470;11.004;2024-01-16T03:19:09;6.67;;;4.93;;
6823;SDS011;58633;49.470;11.004;2024-01-16T03:21:35;7.00;;;4.60;;
6823;SDS011;58633;49.470;11.004;2024-01-16T03:24:00;7.17;;;5.03;;
6823;SDS011;58633;49.470;11.004;2024-01-16T03:26:26;7.70;;;4.80;;
6823;SDS011;58633;49.470;11.004;2024-01-16T03:28:51;9.17;;;5.00;;
6823;SDS011;58633;49.470;11.004;2024-01-16T03:31:17;10.43;;;4.93;;
6823;SDS011;58633;49.470;11.004;2024-01-16T03:33:44;5.63;;;4.63;;
6823;SDS011;58633;49.470;11.004;2024-01-16T03:36:10;6.90;;;4.83;;
6823;SDS011;58633;49.470;11.004;2024-01-16T03:38:37;8.40;;;5.37;;
6823;SDS011;58633;49.470;11.004;2024-01-16T03:41:03;7.73;;;5.07;;
6823;SDS011;58633;49.470;11.004;2024-01-16T03:43:31;8.57;;;4.90;;
6823;SDS011;58633;49.470;11.004;2024-01-16T03:45:58;6.97;;;4.90;;
6823;SDS011;58633;49.470;11.004;2024-01-16T03:48:23;7.33;;;5.27;;
6823;SDS011;58633;49.470;11.004;2024-01-16T03:50:49;7.67;;;5.03;;
6823;SDS011;58633;49.470;11.004;2024-01-16T03:53:14;8.90;;;5.30;;
6823;SDS011;58633;49.470;11.004;2024-01-16T03:55:40;8.43;;;5.30;;
6823;SDS011;58633;49.470;11.004;2024-01-16T03:58:05;9.03;;;4.90;;
6823;SDS011;58633;49.470;11.004;2024-01-16T04:00:31;7.17;;;5.10;;
6823;SDS011;58633;49.470;11.004;2024-01-16T04:02:57;7.53;;;5.07;;
6823;SDS011;58633;49.470;11.004;2024-01-16T04:05:22;9.20;;;5.37;;
6823;SDS011;58633;49.470;11.004;2024-01-16T04:07:48;7.00;;;4.73;;
6823;SDS011;58633;49.470;11.004;2024-01-16T04:10:14;7.27;;;4.63;;
6823;SDS011;58633;49.470;11.004;2024-01-16T04:12:39;12.17;;;5.97;;
6823;SDS011;58633;49.470;11.004;2024-01-16T04:15:05;8.83;;;4.77;;
6823;SDS011;58633;49.470;11.004;2024-01-16T04:17:31;9.87;;;4.93;;
6823;SDS011;58633;49.470;11.004;2024-01-16T04:19:57;10.60;;;5.70;;
6823;SDS011;58633;49.470;11.004;2024-01-16T04:22:22;7.23;;;5.10;;
6823;SDS011;58633;49.470;11.004;2024-01-16T04:24:48;9.53;;;5.20;;
6823;SDS011;58633;49.470;11.004;2024-01-16T04:27:13;9.60;;;5.20;;
6823;SDS011;58633;49.470;11.004;2024-01-16T04:29:39;8.47;;;5.00;;
6823;SDS011;58633;49.470;11.004;2024-01-16T04:32:05;8.07;;;5.37;;
6823;SDS011;58633;49.470;11.004;2024-01-16T04:34:30;4.87;;;4.13;;
6823;SDS011;58633;49.470;11.004;2024-01-16T04:36:56;7.20;;;5.20;;
6823;SDS011;58633;49.470;11.004;2024-01-16T04:39:22;12.20;;;5.47;;
6823;SDS011;58633;49.470;11.004;2024-01-16T04:41:51;9.40;;;5.30;;
6823;SDS011;58633;49.470;11.004;2024-01-16T04:44:16;9.97;;;5.73;;
6823;SDS011;58633;49.470;11.004;2024-01-16T04:46:42;8.53;;;5.33;;
6823;SDS011;58633;49.470;11.004;2024-01-16T04:49:08;7.77;;;4.90;;
6823;SDS011;58633;49.470;11.004;2024-01-16T04:51:33;10.33;;;5.57;;
6823;SDS011;58633;49.470;11.004;2024-01-16T04:53:59;10.20;;;5.47;;
6823;SDS011;58633;49.470;11.004;2024-01-16T04:56:24;6.97;;;5.00;;
6823;SDS011;58633;49.470;11.004;2024-01-16T04:58:50;7.87;;;4.97;;
6823;SDS011;58633;49.470;11.004;2024-01-16T05:01:17;8.67;;;5.30;;
6823;SDS011;58633;49.470;11.004;2024-01-16T05:03:43;10.77;;;5.43;;
6823;SDS011;58633;49.470;11.004;2024-01-16T05:06:12;6.93;;;5.03;;
6823;SDS011;58633;49.470;11.004;2024-01-16T05:08:39;9.30;;;5.33;;
6823;SDS011;58633;49.470;11.004;2024-01-16T05:11:05;9.67;;;5.33;;
6823;SDS011;58633;49.470;11.004;2024-01-16T05:13:30;9.60;;;5.50;;
6823;SDS011;58633;49.470;11.004;2024-01-16T05:15:56;8.53;;;4.90;;
6823;SDS011;58633;49.470;11.004;2024-01-16T05:18:21;9.73;;;5.33;;
6823;SDS011;58633;49.470;11.004;2024-01-16T05:20:47;11.73;;;5.37;;
6823;SDS011;58633;49.470;11.004;2024-01-16T05:23:12;6.97;;;5.03;;
6823;SDS011;58633;49.470;11.004;2024-01-16T05:25:38;13.23;;;5.40;;
6823;SDS011;58633;49.470;11.004;2024-01-16T05:28:04;6.47;;;4.67;;
6823;SDS011;58633;49.470;11.004;2024-01-16T05:30:29;8.87;;;5.30;;
6823;SDS011;58633;49.470;11.004;2024-01-16T05:32:55;9.93;;;5.80;;
6823;SDS011;58633;49.470;11.004;2024-01-16T05:35:21;6.87;;;4.90;;
6823;SDS011;58633;49.470;11.004;2024-01-16T05:37:46;10.03;;;5.03;;
6823;SDS011;58633;49.470;11.004;2024-01-16T05:40:12;7.27;;;4.93;;
6823;SDS011;58633;49.470;11.004;2024-01-16T05:42:38;7.10;;;4.77;;
6823;SDS011;58633;49.470;11.004;2024-01-16T05:45:04;8.27;;;5.03;;
6823;SDS011;58633;49.470;11.004;2024-01-16T05:47:29;7.60;;;5.30;;
6823;SDS011;58633;49.470;11.004;2024-01-16T05:49:55;9.27;;;5.47;;
6823;SDS011;58633;49.470;11.004;2024-01-16T05:52:21;9.90;;;5.20;;
6823;SDS011;58633;49.470;11.004;2024-01-16T05:54:48;8.00;;;5.53;;
6823;SDS011;58633;49.470;11.004;2024-01-16T05:57:13;7.03;;;5.00;;
6823;SDS011;58633;49.470;11.004;2024-01-16T05:59:39;10.83;;;5.40;;
6823;SDS011;58633;49.470;11.004;2024-01-16T06:02:04;9.27;;;5.90;;
6823;SDS011;58633;49.470;11.004;2024-01-16T06:04:30;10.43;;;6.17;;
6823;SDS011;58633;49.470;11.004;2024-01-16T06:06:55;10.03;;;5.77;;
6823;SDS011;58633;49.470;11.004;2024-01-16T06:09:21;10.77;;;5.87;;
6823;SDS011;58633;49.470;11.004;2024-01-16T06:11:46;8.07;;;5.03;;
6823;SDS011;58633;49.470;11.004;2024-01-16T06:14:13;9.13;;;5.87;;
6823;SDS011;58633;49.470;11.004;2024-01-16T06:16:39;10.40;;;6.23;;
6823;SDS011;58633;49.470;11.004;2024-01-16T06:19:04;9.70;;;6.37;;
6823;SDS011;58633;49.470;11.004;2024-01-16T06:21:30;12.03;;;6.23;;
6823;SDS011;58633;49.470;11.004;2024-01-16T06:23:55;10.33;;;6.10;;
6823;SDS011;58633;49.470;11.004;2024-01-16T06:26:21;9.63;;;6.10;;
6823;SDS011;58633;49.470;11.004;2024-01-16T06:28:46;13.57;;;7.00;;
6823;SDS011;58633;49.470;11.004;2024-01-16T06:31:12;16.17;;;7.40;;
6823;SDS011;58633;49.470;11.004;2024-01-16T06:33:38;10.93;;;6.07;;
6823;SDS011;58633;49.470;11.004;2024-01-16T06:36:03;12.57;;;5.67;;
6823;SDS011;58633;49.470;11.004;2024-01-16T06:38:30;9.93;;;5.93;;
6823;SDS011;58633;49.470;11.004;2024-01-16T06:40:56;7.73;;;5.60;;
6823;SDS011;58633;49.470;11.004;2024-01-16T06:43:22;9.30;;;5.80;;
6823;SDS011;58633;49.470;11.004;2024-01-16T06:45:48;10.17;;;5.70;;
6823;SDS011;58633;49.470;11.004;2024-01-16T06:48:14;6.30;;;4.77;;
6823;SDS011;58633;49.470;11.004;2024-01-16T06:50:40;9.97;;;5.87;;
6823;SDS011;58633;49.470;11.004;2024-01-16T06:53:06;12.40;;;5.67;;
6823;SDS011;58633;49.470;11.004;2024-01-16T06:55:32;10.07;;;5.77;;
6823;SDS011;58633;49.470;11.004;2024-01-16T06:57:57;10.73;;;5.80;;
6823;SDS011;58633;49.470;11.004;2024-01-16T07:00:23;10.10;;;6.30;;
6823;SDS011;58633;49.470;11.004;2024-01-16T07:02:51;11.40;;;6.30;;
6823;SDS011;58633;49.470;11.004;2024-01-16T07:05:17;10.87;;;5.93;;
6823;SDS011;58633;49.470;11.004;2024-01-16T07:07:42;9.17;;;5.63;;
6823;SDS011;58633;49.470;11.004;2024-01-16T07:10:08;10.20;;;6.00;;
6823;SDS011;58633;49.470;11.004;2024-01-16T07:12:38;9.17;;;5.77;;
6823;SDS011;58633;49.470;11.004;2024-01-16T07:15:04;8.97;;;5.97;;
6823;SDS011;58633;49.470;11.004;2024-01-16T07:17:30;8.67;;;5.87;;
6823;SDS011;58633;49.470;11.004;2024-01-16T07:19:55;12.70;;;5.83;;
6823;SDS011;58633;49.470;11.004;2024-01-16T07:22:21;11.50;;;6.30;;
6823;SDS011;58633;49.470;11.004;2024-01-16T07:24:47;10.07;;;6.30;;
6823;SDS011;58633;49.470;11.004;2024-01-16T07:27:13;12.27;;;6.00;;
6823;SDS011;58633;49.470;11.004;2024-01-16T07:29:38;8.87;;;5.30;;
6823;SDS011;58633;49.470;11.004;2024-01-16T07:32:05;9.43;;;5.73;;
6823;SDS011;58633;49.470;11.004;2024-01-16T07:34:31;9.77;;;5.87;;
6823;SDS011;58633;49.470;11.004;2024-01-16T07:36:56;11.93;;;6.17;;
6823;SDS011;58633;49.470;11.004;2024-01-16T07:39:22;8.60;;;5.83;;
6823;SDS011;58633;49.470;11.004;2024-01-16T07:41:47;9.13;;;6.07;;
6823;SDS011;58633;49.470;11.004;2024-01-16T07:44:13;10.83;;;5.87;;
6823;SDS011;58633;49.470;11.004;2024-01-16T07:46:39;11.30;;;6.07;;
6823;SDS011;58633;49.470;11.004;2024-01-16T07:49:04;9.23;;;6.43;;
6823;SDS011;58633;49.470;11.004;2024-01-16T07:51:30;11.97;;;5.77;;
6823;SDS011;58633;49.470;11.004;2024-01-16T07:54:06;13.50;;;6.13;;
6823;SDS011;58633;49.470;11.004;2024-01-16T07:56:34;10.27;;;5.73;;
6823;SDS011;58633;49.470;11.004;2024-01-16T07:59:00;8.63;;;5.90;;
6823;SDS011;58633;49.470;11.004;2024-01-16T08:01:26;11.20;;;5.97;;
6823;SDS011;58633;49.470;11.004;2024-01-16T08:03:54;13.83;;;6.60;;
6823;SDS011;58633;49.470;11.004;2024-01-16T08:06:20;11.23;;;6.43;;
6823;SDS011;58633;49.470;11.004;2024-01-16T08:08:46;8.40;;;5.90;;
6823;SDS011;58633;49.470;11.004;2024-01-16T08:11:13;11.13;;;6.20;;
6823;SDS011;58633;49.470;11.004;2024-01-16T08:13:39;11.83;;;6.17;;
6823;SDS011;58633;49.470;11.004;2024-01-16T08:16:04;10.00;;;5.63;;
6823;SDS011;58633;49.470;11.004;2024-01-16T08:18:30;7.33;;;4.90;;
6823;SDS011;58633;49.470;11.004;2024-01-16T08:20:59;12.37;;;5.30;;
6823;SDS011;58633;49.470;11.004;2024-01-16T08:23:24;10.40;;;5.80;;
6823;SDS011;58633;49.470;11.004;2024-01-16T08:25:50;10.00;;;5.30;;
6823;SDS011;58633;49.470;11.004;2024-01-16T08:28:17;9.30;;;5.30;;
6823;SDS011;58633;49.470;11.004;2024-01-16T08:30:42;10.37;;;6.10;;
6823;SDS011;58633;49.470;11.004;2024-01-16T08:33:08;10.23;;;6.00;;
6823;SDS011;58633;49.470;11.004;2024-01-16T08:35:34;10.37;;;5.70;;
6823;SDS011;58633;49.470;11.004;2024-01-16T08:38:00;8.73;;;5.17;;
6823;SDS011;58633;49.470;11.004;2024-01-16T08:40:26;10.37;;;6.17;;
6823;SDS011;58633;49.470;11.004;2024-01-16T08:42:51;9.87;;;5.97;;
6823;SDS011;58633;49.470;11.004;2024-01-16T08:45:20;8.63;;;5.40;;
6823;SDS011;58633;49.470;11.004;2024-01-16T08:47:46;11.03;;;5.47;;
6823;SDS011;58633;49.470;11.004;2024-01-16T08:50:11;14.10;;;6.17;;
6823;SDS011;58633;49.470;11.004;2024-01-16T08:52:37;12.80;;;6.67;;
6823;SDS011;58633;49.470;11.004;2024-01-16T08:55:03;14.93;;;6.33;;
6823;SDS011;58633;49.470;11.004;2024-01-16T08:57:29;10.83;;;6.40;;
6823;SDS011;58633;49.470;11.004;2024-01-16T08:59:54;10.07;;;5.20;;
6823;SDS011;58633;49.470;11.004;2024-01-16T09:02:20;12.60;;;6.23;;
6823;SDS011;58633;49.470;11.004;2024-01-16T09:04:46;9.73;;;5.43;;
6823;SDS011;58633;49.470;11.004;2024-01-16T09:07:12;10.07;;;6.03;;
6823;SDS011;58633;49.470;11.004;2024-01-16T09:09:42;14.03;;;6.10;;
6823;SDS011;58633;49.470;11.004;2024-01-16T09:12:08;10.50;;;5.97;;
6823;SDS011;58633;49.470;11.004;2024-01-16T09:14:34;8.63;;;5.90;;
6823;SDS011;58633;49.470;11.004;2024-01-16T09:17:00;10.83;;;6.07;;
6823;SDS011;58633;49.470;11.004;2024-01-16T09:19:25;9.13;;;5.70;;
6823;SDS011;58633;49.470;11.004;2024-01-16T09:21:51;9.93;;;6.43;;
6823;SDS011;58633;49.470;11.004;2024-01-16T09:24:20;9.83;;;5.97;;
6823;SDS011;58633;49.470;11.004;2024-01-16T09:26:45;8.90;;;5.87;;
6823;SDS011;58633;49.470;11.004;2024-01-16T09:29:11;9.53;;;5.63;;
6823;SDS011;58633;49.470;11.004;2024-01-16T09:31:37;12.53;;;6.00;;
6823;SDS011;58633;49.470;11.004;2024-01-16T09:34:03;12.53;;;5.73;;
6823;SDS011;58633;49.470;11.004;2024-01-16T09:36:29;9.67;;;5.13;;
6823;SDS011;58633;49.470;11.004;2024-01-16T09:38:55;11.00;;;5.90;;
6823;SDS011;58633;49.470;11.004;2024-01-16T09:41:20;12.10;;;5.60;;
6823;SDS011;58633;49.470;11.004;2024-01-16T09:43:47;7.27;;;5.23;;
6823;SDS011;58633;49.470;11.004;2024-01-16T09:46:12;10.03;;;5.97;;
6823;SDS011;58633;49.470;11.004;2024-01-16T09:48:40;13.00;;;6.27;;
6823;SDS011;58633;49.470;11.004;2024-01-16T09:51:08;11.83;;;5.97;;
6823;SDS011;58633;49.470;11.004;2024-01-16T09:53:34;10.40;;;5.77;;
6823;SDS011;58633;49.470;11.004;2024-01-16T09:56:01;10.80;;;5.93;;
6823;SDS011;58633;49.470;11.004;2024-01-16T09:58:28;9.70;;;5.43;;
6823;SDS011;58633;49.470;11.004;2024-01-16T10:01:00;12.97;;;5.70;;
6823;SDS011;58633;49.470;11.004;2024-01-16T10:03:26;11.77;;;5.73;;
6823;SDS011;58633;49.470;11.004;2024-01-16T10:05:55;12.23;;;5.70;;
6823;SDS011;58633;49.470;11.004;2024-01-16T10:08:21;12.93;;;5.17;;
6823;SDS011;58633;49.470;11.004;2024-01-16T10:10:47;11.00;;;5.63;;
6823;SDS011;58633;49.470;11.004;2024-01-16T10:13:13;10.27;;;5.50;;
6823;SDS011;58633;49.470;11.004;2024-01-16T10:15:39;10.00;;;5.83;;
6823;SDS011;58633;49.470;11.004;2024-01-16T10:18:05;9.53;;;5.60;;
6823;SDS011;58633;49.470;11.004;2024-01-16T10:20:46;12.30;;;6.27;;
6823;SDS011;58633;49.470;11.004;2024-01-16T10:23:11;12.03;;;5.83;;
6823;SDS011;58633;49.470;11.004;2024-01-16T10:26:04;9.10;;;5.00;;
6823;SDS011;58633;49.470;11.004;2024-01-16T10:28:30;8.50;;;5.17;;
6823;SDS011;58633;49.470;11.004;2024-01-16T10:31:03;11.93;;;5.60;;
6823;SDS011;58633;49.470;11.004;2024-01-16T10:33:29;9.50;;;5.40;;
6823;SDS011;58633;49.470;11.004;2024-01-16T10:38:42;8.20;;;5.37;;
6823;SDS011;58633;49.470;11.004;2024-01-16T10:41:12;7.87;;;5.03;;
6823;SDS011;58633;49.470;11.004;2024-01-16T10:43:42;7.73;;;5.27;;
6823;SDS011;58633;49.470;11.004;2024-01-16T10:46:16;11.07;;;5.87;;
6823;SDS011;58633;49.470;11.004;2024-01-16T10:48:58;8.37;;;5.53;;
6823;SDS011;58633;49.470;11.004;2024-01-16T10:51:26;8.17;;;5.50;;
6823;SDS011;58633;49.470;11.004;2024-01-16T10:54:03;10.70;;;5.40;;
6823;SDS011;58633;49.470;11.004;2024-01-16T10:56:33;8.70;;;5.20;;
6823;SDS011;58633;49.470;11.004;2024-01-16T11:01:36;11.20;;;5.37;;
6823;SDS011;58633;49.470;11.004;2024-01-16T11:04:03;9.17;;;5.20;;
6823;SDS011;58633;49.470;11.004;2024-01-16T11:06:30;7.07;;;5.30;;
6823;SDS011;58633;49.470;11.004;2024-01-16T11:08:56;9.53;;;5.90;;
6823;SDS011;58633;49.470;11.004;2024-01-16T11:11:23;8.40;;;5.30;;
6823;SDS011;58633;49.470;11.004;2024-01-16T11:13:50;9.50;;;5.73;;
6823;SDS011;58633;49.470;11.004;2024-01-16T11:16:19;8.13;;;5.00;;
6823;SDS011;58633;49.470;11.004;2024-01-16T11:18:47;9.43;;;5.47;;
6823;SDS011;58633;49.470;11.004;2024-01-16T11:21:14;10.07;;;5.43;;
6823;SDS011;58633;49.470;11.004;2024-01-16T11:23:40;8.67;;;5.10;;
6823;SDS011;58633;49.470;11.004;2024-01-16T11:28:57;7.70;;;4.63;;
6823;SDS011;58633;49.470;11.004;2024-01-16T11:31:27;8.30;;;4.80;;
6823;SDS011;58633;49.470;11.004;2024-01-16T11:33:53;9.17;;;5.10;;
6823;SDS011;58633;49.470;11.004;2024-01-16T11:39:06;9.13;;;4.50;;
6823;SDS011;58633;49.470;11.004;2024-01-16T11:47:18;9.50;;;5.03;;
6823;SDS011;58633;49.470;11.004;2024-01-16T11:49:48;7.60;;;4.53;;
6823;SDS011;58633;49.470;11.004;2024-01-16T11:52:14;9.13;;;5.33;;
6823;SDS011;58633;49.470;11.004;2024-01-16T11:55:00;8.83;;;5.03;;
6823;SDS011;58633;49.470;11.004;2024-01-16T11:57:26;10.80;;;5.70;;
6823;SDS011;58633;49.470;11.004;2024-01-16T12:00:08;7.10;;;4.50;;
6823;SDS011;58633;49.470;11.004;2024-01-16T12:05:10;6.40;;;4.20;;
6823;SDS011;58633;49.470;11.004;2024-01-16T12:07:46;8.03;;;4.90;;
6823;SDS011;58633;49.470;11.004;2024-01-16T12:10:16;5.97;;;4.07;;
6823;SDS011;58633;49.470;11.004;2024-01-16T12:12:43;6.37;;;4.47;;
6823;SDS011;58633;49.470;11.004;2024-01-16T12:15:21;7.20;;;4.30;;
6823;SDS011;58633;49.470;11.004;2024-01-16T12:17:52;7.47;;;4.50;;
6823;SDS011;58633;49.470;11.004;2024-01-16T12:20:20;8.67;;;5.20;;
6823;SDS011;58633;49.470;11.004;2024-01-16T12:22:54;8.47;;;3.93;;
6823;SDS011;58633;49.470;11.004;2024-01-16T12:25:20;7.20;;;4.83;;
6823;SDS011;58633;49.470;11.004;2024-01-16T12:27:46;9.00;;;4.83;;
6823;SDS011;58633;49.470;11.004;2024-01-16T12:30:19;8.93;;;5.50;;
6823;SDS011;58633;49.470;11.004;2024-01-16T12:32:44;7.63;;;3.90;;
6823;SDS011;58633;49.470;11.004;2024-01-16T12:35:10;5.60;;;4.47;;
6823;SDS011;58633;49.470;11.004;2024-01-16T12:37:35;6.97;;;4.37;;
6823;SDS011;58633;49.470;11.004;2024-01-16T12:40:01;9.67;;;4.77;;
6823;SDS011;58633;49.470;11.004;2024-01-16T12:42:26;12.93;;;4.73;;
6823;SDS011;58633;49.470;11.004;2024-01-16T12:44:52;8.00;;;4.53;;
6823;SDS011;58633;49.470;11.004;2024-01-16T12:47:19;6.77;;;4.00;;
6823;SDS011;58633;49.470;11.004;2024-01-16T12:49:46;5.90;;;4.27;;
6823;SDS011;58633;49.470;11.004;2024-01-16T12:54:43;7.57;;;4.27;;
6823;SDS011;58633;49.470;11.004;2024-01-16T12:57:09;4.17;;;3.60;;
6823;SDS011;58633;49.470;11.004;2024-01-16T12:59:38;8.10;;;4.27;;
6823;SDS011;58633;49.470;11.004;2024-01-16T13:02:04;5.53;;;3.93;;
6823;SDS011;58633;49.470;11.004;2024-01-16T13:04:31;7.87;;;4.43;;
6823;SDS011;58633;49.470;11.004;2024-01-16T13:07:03;7.33;;;4.40;;
6823;SDS011;58633;49.470;11.004;2024-01-16T13:09:28;10.63;;;4.67;;
6823;SDS011;58633;49.470;11.004;2024-01-16T13:11:54;6.63;;;4.27;;
6823;SDS011;58633;49.470;11.004;2024-01-16T13:14:23;6.53;;;3.60;;
6823;SDS011;58633;49.470;11.004;2024-01-16T13:16:50;10.40;;;3.83;;
6823;SDS011;58633;49.470;11.004;2024-01-16T13:19:17;8.07;;;3.93;;
6823;SDS011;58633;49.470;11.004;2024-01-16T13:21:46;8.17;;;3.63;;
6823;SDS011;58633;49.470;11.004;2024-01-16T13:24:12;7.53;;;3.20;;
6823;SDS011;58633;49.470;11.004;2024-01-16T13:26:42;5.87;;;3.70;;
6823;SDS011;58633;49.470;11.004;2024-01-16T13:29:08;5.83;;;3.30;;
6823;SDS011;58633;49.470;11.004;2024-01-16T13:31:34;5.83;;;3.50;;
6823;SDS011;58633;49.470;11.004;2024-01-16T13:33:59;6.43;;;4.20;;
6823;SDS011;58633;49.470;11.004;2024-01-16T13:36:25;8.07;;;4.60;;
6823;SDS011;58633;49.470;11.004;2024-01-16T13:38:51;7.37;;;3.73;;
6823;SDS011;58633;49.470;11.004;2024-01-16T13:41:17;9.87;;;5.07;;
6823;SDS011;58633;49.470;11.004;2024-01-16T13:43:42;8.00;;;4.30;;
6823;SDS011;58633;49.470;11.004;2024-01-16T13:46:08;5.67;;;3.70;;
6823;SDS011;58633;49.470;11.004;2024-01-16T13:48:35;4.80;;;3.27;;
6823;SDS011;58633;49.470;11.004;2024-01-16T13:51:00;5.00;;;3.17;;
6823;SDS011;58633;49.470;11.004;2024-01-16T13:53:26;9.70;;;4.20;;
6823;SDS011;58633;49.470;11.004;2024-01-16T13:55:52;7.53;;;3.30;;
6823;SDS011;58633;49.470;11.004;2024-01-16T13:58:17;5.87;;;3.50;;
6823;SDS011;58633;49.470;11.004;2024-01-16T14:00:43;4.60;;;3.30;;
6823;SDS011;58633;49.470;11.004;2024-01-16T14:03:09;7.73;;;3.70;;
6823;SDS011;58633;49.470;11.004;2024-01-16T14:05:34;4.57;;;3.23;;
6823;SDS011;58633;49.470;11.004;2024-01-16T14:08:01;6.80;;;3.67;;
6823;SDS011;58633;49.470;11.004;2024-01-16T14:10:27;11.30;;;3.90;;
6823;SDS011;58633;49.470;11.004;2024-01-16T14:12:52;6.33;;;3.77;;
6823;SDS011;58633;49.470;11.004;2024-01-16T14:15:19;4.30;;;3.63;;
6823;SDS011;58633;49.470;11.004;2024-01-16T14:17:49;6.30;;;3.60;;
6823;SDS011;58633;49.470;11.004;2024-01-16T14:20:16;9.67;;;3.70;;
6823;SDS011;58633;49.470;11.004;2024-01-16T14:22:43;5.77;;;3.60;;
6823;SDS011;58633;49.470;11.004;2024-01-16T14:25:09;6.53;;;3.67;;
6823;SDS011;58633;49.470;11.004;2024-01-16T14:27:41;6.53;;;3.37;;
6823;SDS011;58633;49.470;11.004;2024-01-16T14:30:13;5.97;;;3.40;;
6823;SDS011;58633;49.470;11.004;2024-01-16T14:32:39;4.67;;;3.37;;
6823;SDS011;58633;49.470;11.004;2024-01-16T14:35:06;6.97;;;3.93;;
6823;SDS011;58633;49.470;11.004;2024-01-16T14:37:34;5.53;;;3.87;;
6823;SDS011;58633;49.470;11.004;2024-01-16T14:40:01;10.00;;;4.50;;
6823;SDS011;58633;49.470;11.004;2024-01-16T14:42:28;6.67;;;4.10;;
6823;SDS011;58633;49.470;11.004;2024-01-16T14:44:54;8.63;;;4.00;;
6823;SDS011;58633;49.470;11.004;2024-01-16T14:47:20;7.53;;;4.27;;
6823;SDS011;58633;49.470;11.004;2024-01-16T14:49:45;11.30;;;3.97;;
6823;SDS011;58633;49.470;11.004;2024-01-16T14:52:11;10.80;;;4.90;;
6823;SDS011;58633;49.470;11.004;2024-01-16T14:54:37;9.63;;;5.10;;
6823;SDS011;58633;49.470;11.004;2024-01-16T14:57:04;12.57;;;4.07;;
6823;SDS011;58633;49.470;11.004;2024-01-16T14:59:31;9.03;;;4.80;;
6823;SDS011;58633;49.470;11.004;2024-01-16T15:01:57;8.40;;;4.47;;
6823;SDS011;58633;49.470;11.004;2024-01-16T15:04:23;10.83;;;4.33;;